createdAt,value
2023-03-02T00:01:00.259Z,42.88
2023-03-02T00:03:29.898Z,44.20
2023-03-02T00:05:58.119Z,41.25
2023-03-02T00:08:26.137Z,48.88
2023-03-02T00:10:54.950Z,49.53
2023-03-02T00:13:22.841Z,42.45
2023-03-02T00:15:51.048Z,44.97
2023-03-02T00:18:19.571Z,43.75
2023-03-02T00:20:49.651Z,48.10
2023-03-02T00:23:17.874Z,41.28
2023-03-02T00:25:45.761Z,48.92
2023-03-02T00:28:13.543Z,41.10
2023-03-02T00:30:41.520Z,38.53
2023-03-02T00:33:09.376Z,45.00
2023-03-02T00:35:40.470Z,46.25
2023-03-02T00:38:09.921Z,47.55
2023-03-02T00:40:37.680Z,46.67
2023-03-02T00:43:05.586Z,51.22
2023-03-02T00:45:33.374Z,43.33
2023-03-02T00:48:01.279Z,49.63
2023-03-02T00:50:29.244Z,43.55
2023-03-02T00:52:59.174Z,46.38
2023-03-02T00:55:29.375Z,42.85
2023-03-02T00:57:57.462Z,46.67
2023-03-02T01:00:27.459Z,46.55
2023-03-02T01:02:55.305Z,48.65
2023-03-02T01:05:23.295Z,50.85
2023-03-02T01:07:51.239Z,46.33
2023-03-02T01:10:19.101Z,46.58
2023-03-02T01:12:48.261Z,47.83
2023-03-02T01:15:16.440Z,45.05
2023-03-02T01:17:44.289Z,51.50
2023-03-02T01:20:12.916Z,44.45
2023-03-02T01:22:40.813Z,45.95
2023-03-02T01:25:09.062Z,44.53
2023-03-02T01:27:36.982Z,48.97
2023-03-02T01:30:07.375Z,45.08
2023-03-02T01:32:35.298Z,47.22
2023-03-02T01:35:03.430Z,42.50
2023-03-02T01:37:31.197Z,46.78
2023-03-02T01:39:59.001Z,48.15
2023-03-02T01:42:26.721Z,50.40
2023-03-02T01:44:57.138Z,50.40
2023-03-02T01:47:29.679Z,49.95
2023-03-02T01:50:01.415Z,48.42
2023-03-02T01:52:31.693Z,47.97
2023-03-02T01:55:02.662Z,50.20
2023-03-02T01:57:33.305Z,47.15
2023-03-02T02:00:07.055Z,53.28
2023-03-02T02:02:36.584Z,45.15
2023-03-02T02:05:05.589Z,47.22
2023-03-02T02:07:33.389Z,44.88
2023-03-02T02:10:02.411Z,48.65
2023-03-02T02:12:30.316Z,43.40
2023-03-02T02:15:00.795Z,48.92
2023-03-02T02:17:30.740Z,48.42
2023-03-02T02:20:09.079Z,48.83
2023-03-02T02:22:48.411Z,47.10
2023-03-02T02:25:24.572Z,49.95
2023-03-02T02:27:53.916Z,52.65
2023-03-02T02:30:23.199Z,49.35
2023-03-02T02:32:54.197Z,49.63
2023-03-02T02:35:27.346Z,55.42
2023-03-02T02:37:58.734Z,51.75
2023-03-02T02:40:42.799Z,51.10
2023-03-02T02:43:14.559Z,50.67
2023-03-02T02:45:42.733Z,53.58
2023-03-02T02:48:16.315Z,52.33
2023-03-02T02:50:44.905Z,50.42
2023-03-02T02:53:15.803Z,52.25
2023-03-02T02:55:44.753Z,57.08
2023-03-02T02:58:32.178Z,53.10
2023-03-02T03:01:00.924Z,52.17
2023-03-02T03:03:31.785Z,49.40
2023-03-02T03:06:00.972Z,50.30
2023-03-02T03:08:56.013Z,52.40
2023-03-02T03:11:26.667Z,53.88
2023-03-02T03:14:01.575Z,54.97
2023-03-02T03:16:31.513Z,51.80
2023-03-02T03:19:06.362Z,47.45
2023-03-02T03:21:34.106Z,49.00
2023-03-02T03:24:02.043Z,48.35
2023-03-02T03:26:30.066Z,49.97
2023-03-02T03:28:59.450Z,49.10
2023-03-02T03:31:29.109Z,52.70
2023-03-02T03:34:00.624Z,51.47
2023-03-02T03:36:29.328Z,54.63
2023-03-02T03:38:58.048Z,52.13
2023-03-02T03:41:26.616Z,48.53
2023-03-02T03:43:54.790Z,55.58
2023-03-02T03:46:25.060Z,52.83
2023-03-02T03:48:53.033Z,55.13
2023-03-02T03:51:20.946Z,54.05
2023-03-02T03:53:59.918Z,56.95
2023-03-02T03:56:28.193Z,50.45
2023-03-02T03:59:06.859Z,56.20
2023-03-02T04:01:37.543Z,54.28
2023-03-02T04:04:07.059Z,49.53
2023-03-02T04:06:35.053Z,54.13
2023-03-02T04:09:05.075Z,50.38
2023-03-02T04:11:33.154Z,56.85
2023-03-02T04:14:01.229Z,55.72
2023-03-02T04:16:30.071Z,56.70
2023-03-02T04:19:00.063Z,58.88
2023-03-02T04:21:28.595Z,52.20
2023-03-02T04:23:56.411Z,54.45
2023-03-02T04:26:26.199Z,60.38
2023-03-02T04:28:54.303Z,52.30
2023-03-02T04:31:22.102Z,53.05
2023-03-02T04:33:49.936Z,57.20
2023-03-02T04:36:19.656Z,52.03
2023-03-02T04:38:47.745Z,54.65
2023-03-02T04:41:16.159Z,56.03
2023-03-02T04:43:44.189Z,53.30
2023-03-02T04:46:16.928Z,58.92
2023-03-02T04:48:44.737Z,51.67
2023-03-02T04:51:24.100Z,57.45
2023-03-02T04:53:52.372Z,52.88
2023-03-02T04:56:20.252Z,53.20
2023-03-02T04:58:48.365Z,49.90
2023-03-02T05:01:18.026Z,53.92
2023-03-02T05:03:46.456Z,56.83
2023-03-02T05:06:15.362Z,57.35
2023-03-02T05:08:44.754Z,50.45
2023-03-02T05:11:22.547Z,56.83
2023-03-02T05:13:51.163Z,56.08
2023-03-02T05:16:19.544Z,53.47
2023-03-02T05:18:47.843Z,54.22
2023-03-02T05:21:17.479Z,55.20
2023-03-02T05:23:46.697Z,55.78
2023-03-02T05:26:15.395Z,51.22
2023-03-02T05:28:43.675Z,51.55
2023-03-02T05:31:19.002Z,57.00
2023-03-02T05:33:47.057Z,63.35
2023-03-02T05:36:15.747Z,58.03
2023-03-02T05:38:46.272Z,53.45
2023-03-02T05:41:14.172Z,59.85
2023-03-02T05:43:42.021Z,52.25
2023-03-02T05:46:10.156Z,53.45
2023-03-02T05:48:38.314Z,52.85
2023-03-02T05:51:06.702Z,55.92
2023-03-02T05:53:34.603Z,52.17
2023-03-02T05:56:04.250Z,51.63
2023-03-02T05:58:35.389Z,60.13
2023-03-02T06:01:03.411Z,50.33
2023-03-02T06:03:31.194Z,52.08
2023-03-02T06:05:58.942Z,52.00
2023-03-02T06:08:26.760Z,52.95
2023-03-02T06:10:57.205Z,50.05
2023-03-02T06:13:26.670Z,47.63
2023-03-02T06:15:54.669Z,51.30
2023-03-02T06:18:22.506Z,53.78
2023-03-02T06:20:51.237Z,57.70
2023-03-02T06:23:19.663Z,51.67
2023-03-02T06:25:48.957Z,53.70
2023-03-02T06:28:18.858Z,54.38
2023-03-02T06:30:49.645Z,58.97
2023-03-02T06:33:19.000Z,49.22
2023-03-02T06:35:47.289Z,50.35
2023-03-02T06:38:16.228Z,51.47
2023-03-02T06:40:44.203Z,52.50
2023-03-02T06:43:12.324Z,48.17
2023-03-02T06:45:40.218Z,50.60
2023-03-02T06:48:10.233Z,46.95
2023-03-02T06:50:38.771Z,48.08
2023-03-02T06:53:06.690Z,54.40
2023-03-02T06:55:34.845Z,46.80
2023-03-02T06:58:02.866Z,50.40
2023-03-02T07:00:30.984Z,51.63
2023-03-02T07:02:59.004Z,48.92
2023-03-02T07:05:32.162Z,49.53
2023-03-02T07:08:00.027Z,43.25
2023-03-02T07:10:27.911Z,54.90
2023-03-02T07:12:55.786Z,52.20
2023-03-02T07:15:23.565Z,48.45
2023-03-02T07:17:51.381Z,53.38
2023-03-02T07:20:21.249Z,46.42
2023-03-02T07:22:50.837Z,49.35
2023-03-02T07:25:18.810Z,48.40
2023-03-02T07:27:46.576Z,49.25
2023-03-02T07:30:15.928Z,44.63
2023-03-02T07:32:43.769Z,52.00
2023-03-02T07:35:11.593Z,46.65
2023-03-02T07:37:39.698Z,50.08
2023-03-02T07:40:11.661Z,47.47
2023-03-02T07:42:39.504Z,48.97
2023-03-02T07:45:08.364Z,54.38
2023-03-02T07:47:36.107Z,53.50
2023-03-02T07:50:04.117Z,49.65
2023-03-02T07:52:32.413Z,53.10
2023-03-02T07:55:00.307Z,49.88
2023-03-02T07:57:29.725Z,50.35
2023-03-02T07:59:57.634Z,46.95
2023-03-02T08:02:25.798Z,48.40
2023-03-02T08:04:53.797Z,49.58
2023-03-02T08:07:21.617Z,45.05
2023-03-02T08:09:49.741Z,48.25
2023-03-02T08:12:17.718Z,48.85
2023-03-02T08:14:48.867Z,47.45
2023-03-02T08:17:17.377Z,47.88
2023-03-02T08:19:45.347Z,41.70
2023-03-02T08:22:13.451Z,40.55
2023-03-02T08:24:41.950Z,53.30
2023-03-02T08:27:12.931Z,49.00
2023-03-02T08:29:40.858Z,43.38
2023-03-02T08:32:10.301Z,37.85
2023-03-02T08:34:47.812Z,47.15
2023-03-02T08:37:15.647Z,45.80
2023-03-02T08:39:43.535Z,47.53
2023-03-02T08:42:11.705Z,46.33
2023-03-02T08:44:40.130Z,45.15
2023-03-02T08:47:08.216Z,41.78
2023-03-02T08:49:40.651Z,54.75
2023-03-02T08:52:08.428Z,41.70
2023-03-02T08:54:36.298Z,39.13
2023-03-02T08:57:04.522Z,51.10
2023-03-02T08:59:32.322Z,39.63
2023-03-02T09:02:03.482Z,41.28
2023-03-02T09:04:31.561Z,43.42
2023-03-02T09:07:00.722Z,45.40
2023-03-02T09:09:28.677Z,42.03
2023-03-02T09:11:56.899Z,36.20
2023-03-02T09:17:05.123Z,41.42
2023-03-02T09:19:43.932Z,40.58
2023-03-02T09:22:14.189Z,41.55
2023-03-02T09:24:42.851Z,33.33
2023-03-02T09:27:12.211Z,38.67
2023-03-02T09:29:40.146Z,40.92
2023-03-02T09:32:08.080Z,35.75
2023-03-02T09:34:36.715Z,43.50
2023-03-02T09:37:05.126Z,42.10
2023-03-02T09:39:37.311Z,42.10
2023-03-02T09:42:43.603Z,39.15
2023-03-02T09:45:22.852Z,43.40
2023-03-02T09:48:01.312Z,38.70
2023-03-02T09:50:33.128Z,39.28
2023-03-02T09:53:22.172Z,37.90
2023-03-02T09:55:55.544Z,44.95
2023-03-02T09:58:27.318Z,38.63
2023-03-02T10:00:55.284Z,40.15
2023-03-02T10:03:30.919Z,38.03
2023-03-02T10:05:59.928Z,35.28
2023-03-02T10:08:30.769Z,37.35
2023-03-02T10:11:09.201Z,40.45
2023-03-02T10:13:47.600Z,44.88
2023-03-02T10:16:28.289Z,70.80
2023-03-02T10:19:10.299Z,38.45
2023-03-02T10:21:40.631Z,41.42
2023-03-02T10:24:24.289Z,33.08
2023-03-02T10:26:56.121Z,34.42
2023-03-02T10:29:37.097Z,32.63
2023-03-02T10:32:14.464Z,31.88
2023-03-02T10:34:50.205Z,40.67
2023-03-02T10:37:23.232Z,33.92
2023-03-02T10:39:51.145Z,35.38
2023-03-02T10:42:39.333Z,33.33
2023-03-02T10:45:21.647Z,35.60
2023-03-02T10:48:05.383Z,38.65
2023-03-02T10:50:35.312Z,36.50
2023-03-02T10:53:07.335Z,31.75
2023-03-02T10:55:35.915Z,43.15
2023-03-02T10:58:22.759Z,35.05
2023-03-02T11:01:06.705Z,40.20
2023-03-02T11:03:35.350Z,29.63
2023-03-02T11:06:18.744Z,31.53
2023-03-02T11:09:08.805Z,34.27
2023-03-02T11:11:37.973Z,32.07
2023-03-02T11:14:15.795Z,30.53
2023-03-02T11:16:43.679Z,37.33
2023-03-02T11:19:16.455Z,33.90
2023-03-02T11:21:49.819Z,36.63
2023-03-02T11:24:23.117Z,36.10
2023-03-02T11:26:54.864Z,35.27
2023-03-02T11:29:33.519Z,38.43
2023-03-02T11:32:09.591Z,30.97
2023-03-02T11:34:44.662Z,31.80
2023-03-02T11:37:18.466Z,32.00
2023-03-02T11:40:04.032Z,35.10
2023-03-02T11:42:35.596Z,33.67
2023-03-02T11:45:18.753Z,40.63
2023-03-02T11:48:02.154Z,45.90
2023-03-02T11:50:34.104Z,35.10
2023-03-02T11:53:05.468Z,32.73
2023-03-02T11:55:40.728Z,31.83
2023-03-02T11:58:13.541Z,39.53
2023-03-02T12:00:44.201Z,33.20
2023-03-02T12:03:22.793Z,38.23
2023-03-02T12:06:05.252Z,31.40
2023-03-02T12:08:38.849Z,35.93
2023-03-02T12:11:09.735Z,36.73
2023-03-02T12:13:38.761Z,36.37
2023-03-02T12:16:21.208Z,33.03
2023-03-02T12:18:53.112Z,33.43
2023-03-02T12:21:23.278Z,41.63
2023-03-02T12:24:03.864Z,34.60
2023-03-02T12:26:36.900Z,30.73
2023-03-02T12:29:22.617Z,35.00
2023-03-02T12:31:57.362Z,34.20
2023-03-02T12:34:36.663Z,35.88
2023-03-02T12:37:13.255Z,36.30
2023-03-02T12:40:20.070Z,37.88
2023-03-02T12:43:13.253Z,30.03
2023-03-02T12:45:58.846Z,36.80
2023-03-02T12:48:32.779Z,34.17
2023-03-02T12:51:03.324Z,41.92
2023-03-02T12:53:31.726Z,30.63
2023-03-02T12:55:59.777Z,32.28
2023-03-02T12:58:31.369Z,32.47
2023-03-02T13:01:02.610Z,31.95
2023-03-02T13:03:33.007Z,34.47
2023-03-02T13:06:04.568Z,36.47
2023-03-02T13:08:33.781Z,38.08
2023-03-02T13:11:02.940Z,38.80
2023-03-02T13:13:38.054Z,32.30
2023-03-02T13:16:08.388Z,36.17
2023-03-02T13:18:43.513Z,32.30
2023-03-02T13:21:14.488Z,29.13
2023-03-02T13:23:47.877Z,27.48
2023-03-02T13:26:27.032Z,32.22
2023-03-02T13:29:07.156Z,28.77
2023-03-02T13:31:36.178Z,28.73
2023-03-02T13:34:05.433Z,29.90
2023-03-02T13:36:37.486Z,34.60
2023-03-02T13:39:07.871Z,39.67
2023-03-02T13:41:40.691Z,36.60
2023-03-02T13:44:20.470Z,32.60
2023-03-02T13:46:48.998Z,35.35
2023-03-02T13:49:27.664Z,30.77
2023-03-02T13:52:02.003Z,36.00
2023-03-02T13:54:33.317Z,30.40
2023-03-02T13:57:03.431Z,34.77
2023-03-02T13:59:32.522Z,32.67
2023-03-02T14:02:01.203Z,37.38
2023-03-02T14:04:30.753Z,34.75
2023-03-02T14:06:58.633Z,34.13
2023-03-02T14:09:27.385Z,37.83
2023-03-02T14:11:56.969Z,35.05
2023-03-02T14:14:27.736Z,34.10
2023-03-02T14:16:55.488Z,36.28
2023-03-02T14:19:23.816Z,35.00
2023-03-02T14:21:53.205Z,32.75
2023-03-02T14:24:21.072Z,31.53
2023-03-02T14:26:50.654Z,33.95
2023-03-02T14:29:23.693Z,37.17
2023-03-02T14:31:52.031Z,29.60
2023-03-02T14:34:19.957Z,32.17
2023-03-02T14:36:51.193Z,29.37
2023-03-02T14:39:24.337Z,29.77
2023-03-02T14:41:54.573Z,36.23
2023-03-02T14:44:23.307Z,35.43
2023-03-02T14:46:51.378Z,34.40
2023-03-02T14:49:19.294Z,34.80
2023-03-02T14:51:55.320Z,39.50
2023-03-02T14:54:26.595Z,30.07
2023-03-02T14:56:54.686Z,33.57
2023-03-02T14:59:22.422Z,35.73
2023-03-02T15:01:50.367Z,32.30
2023-03-02T15:04:18.451Z,32.13
2023-03-02T15:06:47.524Z,33.60
2023-03-02T15:09:15.695Z,30.23
2023-03-02T15:11:45.552Z,33.70
2023-03-02T15:14:14.070Z,38.83
2023-03-02T15:16:42.988Z,33.70
2023-03-02T15:19:11.386Z,38.50
2023-03-02T15:21:44.653Z,38.17
2023-03-02T15:24:12.873Z,38.30
2023-03-02T15:26:41.096Z,39.70
2023-03-02T15:29:10.477Z,34.47
2023-03-02T15:31:38.620Z,33.50
2023-03-02T15:34:08.825Z,39.43
2023-03-02T15:36:36.864Z,30.80
2023-03-02T15:39:08.770Z,32.60
2023-03-02T15:41:37.312Z,38.13
2023-03-02T15:44:05.267Z,36.33
2023-03-02T15:46:34.948Z,37.70
2023-03-02T15:49:02.953Z,36.03
2023-03-02T15:51:30.842Z,34.60
2023-03-02T15:53:59.494Z,32.43
2023-03-02T15:56:35.778Z,31.70
2023-03-02T15:59:11.691Z,41.10
2023-03-02T16:01:41.182Z,36.70
2023-03-02T16:04:09.307Z,39.50
2023-03-02T16:06:38.249Z,34.00
2023-03-02T16:09:06.438Z,38.00
2023-03-02T16:11:35.213Z,31.00
2023-03-02T16:14:06.334Z,37.13
2023-03-02T16:16:34.518Z,38.50
2023-03-02T16:19:04.352Z,36.83
2023-03-02T16:21:34.207Z,37.17
2023-03-02T16:24:04.789Z,42.40
2023-03-02T16:26:35.192Z,32.87
2023-03-02T16:29:08.041Z,36.90
2023-03-02T16:31:39.534Z,31.83
2023-03-02T16:34:10.572Z,38.60
2023-03-02T16:36:40.713Z,35.63
2023-03-02T16:39:09.844Z,39.17
2023-03-02T16:41:39.308Z,35.60
2023-03-02T16:44:08.192Z,35.60
2023-03-02T16:46:41.200Z,38.67
2023-03-02T16:49:11.318Z,41.58
2023-03-02T16:51:39.445Z,30.02
2023-03-02T16:54:07.520Z,33.27
2023-03-02T16:56:35.779Z,43.55
2023-03-02T16:59:03.793Z,36.50
2023-03-02T17:01:31.679Z,37.95
2023-03-02T17:04:06.939Z,31.92
2023-03-02T17:06:36.334Z,36.30
2023-03-02T17:09:04.829Z,41.30
2023-03-02T17:11:33.215Z,42.85
2023-03-02T17:14:01.089Z,38.47
2023-03-02T17:16:29.062Z,32.25
2023-03-02T17:18:59.953Z,43.47
2023-03-02T17:21:28.509Z,39.50
2023-03-02T17:23:57.788Z,42.50
2023-03-02T17:26:25.903Z,38.85
2023-03-02T17:28:53.935Z,47.80
2023-03-02T17:31:23.027Z,39.17
2023-03-02T17:33:51.021Z,37.17
2023-03-02T17:36:19.354Z,38.85
2023-03-02T17:38:47.612Z,42.65
2023-03-02T17:41:17.547Z,38.17
2023-03-02T17:43:45.458Z,36.15
2023-03-02T17:46:16.016Z,44.92
2023-03-02T17:48:44.599Z,39.30
2023-03-02T17:51:16.961Z,45.78
2023-03-02T17:53:47.882Z,46.35
2023-03-02T17:56:19.304Z,44.15
2023-03-02T17:58:47.790Z,52.05
2023-03-02T18:01:16.259Z,50.60
2023-03-02T18:03:46.042Z,49.45
2023-03-02T18:06:14.825Z,49.35
2023-03-02T18:08:43.009Z,57.15
2023-03-02T18:11:11.196Z,48.42
2023-03-02T18:13:42.254Z,46.63
2023-03-02T18:16:10.773Z,48.72
2023-03-02T18:18:39.520Z,43.67
2023-03-02T18:21:08.909Z,45.47
2023-03-02T18:23:37.036Z,41.53
2023-03-02T18:26:05.287Z,46.45
2023-03-02T18:28:34.377Z,49.08
2023-03-02T18:31:31.641Z,50.72
2023-03-02T18:34:00.135Z,47.30
2023-03-02T18:36:30.092Z,45.90
2023-03-02T18:39:06.596Z,52.17
2023-03-02T18:41:34.745Z,54.13
2023-03-02T18:44:03.680Z,49.40
2023-03-02T18:46:36.840Z,47.85
2023-03-02T18:49:07.230Z,46.17
2023-03-02T18:51:37.241Z,53.05
2023-03-02T18:54:09.348Z,48.45
2023-03-02T18:56:40.699Z,49.60
2023-03-02T18:59:09.849Z,47.58
2023-03-02T19:01:40.133Z,48.28
2023-03-02T19:04:09.116Z,56.63
2023-03-02T19:06:37.348Z,43.40
2023-03-02T19:09:05.983Z,57.47
2023-03-02T19:11:34.064Z,53.28
2023-03-02T19:14:02.394Z,57.05
2023-03-02T19:16:30.960Z,48.20
2023-03-02T19:19:02.112Z,53.55
2023-03-02T19:21:30.465Z,60.42
2023-03-02T19:23:58.922Z,55.58
2023-03-02T19:26:26.821Z,56.30
2023-03-02T19:28:55.330Z,49.63
2023-03-02T19:31:27.115Z,45.38
2023-03-02T19:33:55.623Z,50.40
2023-03-02T19:36:24.968Z,55.58
2023-03-02T19:38:52.998Z,49.28
2023-03-02T19:41:21.543Z,52.63
2023-03-02T19:43:50.112Z,44.58
2023-03-02T19:46:18.616Z,51.08
2023-03-02T19:48:46.574Z,50.97
2023-03-02T19:51:15.666Z,50.20
2023-03-02T19:53:47.089Z,51.28
2023-03-02T19:56:16.317Z,52.60
2023-03-02T19:58:49.973Z,50.92
2023-03-02T20:01:21.759Z,52.83
2023-03-02T20:03:51.733Z,53.35
2023-03-02T20:06:20.406Z,52.42
2023-03-02T20:08:50.042Z,54.72
2023-03-02T20:11:18.456Z,61.00
2023-03-02T20:13:46.292Z,57.13
2023-03-02T20:16:15.078Z,55.05
2023-03-02T20:18:43.067Z,56.67
2023-03-02T20:21:10.867Z,61.08
2023-03-02T20:23:44.448Z,55.33
2023-03-02T20:26:13.791Z,55.00
2023-03-02T20:28:41.517Z,54.97
2023-03-02T20:31:12.660Z,59.88
2023-03-02T20:33:43.745Z,54.95
2023-03-02T20:36:13.508Z,53.78
2023-03-02T20:38:44.493Z,54.22
2023-03-02T20:41:15.090Z,47.25
2023-03-02T20:43:44.109Z,58.97
2023-03-02T20:46:18.708Z,55.35
2023-03-02T20:48:46.977Z,59.92
2023-03-02T20:51:14.944Z,52.17
2023-03-02T20:53:43.191Z,59.60
2023-03-02T20:56:12.869Z,57.80
2023-03-02T20:58:47.461Z,58.65
2023-03-02T21:01:17.522Z,62.40
2023-03-02T21:03:46.192Z,59.85
2023-03-02T21:06:15.357Z,58.90
2023-03-02T21:08:44.186Z,54.90
2023-03-02T21:11:15.758Z,56.75
2023-03-02T21:13:47.237Z,54.45
2023-03-02T21:16:18.669Z,58.25
2023-03-02T21:18:47.911Z,60.50
2023-03-02T21:21:15.856Z,63.70
2023-03-02T21:23:43.609Z,53.55
2023-03-02T21:26:12.493Z,55.67
2023-03-02T21:28:44.161Z,63.35
2023-03-02T21:31:17.083Z,60.28
2023-03-02T21:33:46.717Z,66.10
2023-03-02T21:36:16.791Z,57.47
2023-03-02T21:38:44.997Z,57.25
2023-03-02T21:41:13.260Z,59.83
2023-03-02T21:43:41.105Z,57.58
2023-03-02T21:46:09.072Z,55.35
2023-03-02T21:48:38.276Z,64.47
2023-03-02T21:51:07.087Z,64.65
2023-03-02T21:53:35.168Z,70.18
2023-03-02T21:56:02.914Z,60.47
2023-03-02T21:58:30.765Z,54.72
2023-03-02T22:00:58.778Z,54.17
2023-03-02T22:03:26.835Z,60.70
2023-03-02T22:05:56.167Z,64.72
2023-03-02T22:08:24.109Z,60.55
2023-03-02T22:10:53.289Z,58.45
2023-03-02T22:16:02.082Z,54.92
2023-03-02T22:18:30.351Z,58.03
2023-03-02T22:21:00.150Z,60.60
2023-03-02T22:23:28.022Z,55.58
2023-03-02T22:26:02.027Z,60.67
2023-03-02T22:28:30.172Z,57.00
2023-03-02T22:30:59.734Z,61.75
2023-03-02T22:33:29.951Z,60.33
2023-03-02T22:36:05.424Z,57.85
2023-03-02T22:38:33.224Z,61.67
2023-03-02T22:41:01.030Z,66.10
2023-03-02T22:43:31.217Z,59.53
2023-03-02T22:46:00.799Z,57.47
2023-03-02T22:48:30.272Z,53.80
2023-03-02T22:50:58.066Z,56.03
2023-03-02T22:53:31.173Z,56.80
2023-03-02T22:56:00.961Z,57.58
2023-03-02T22:58:31.690Z,57.63
2023-03-02T23:01:00.849Z,55.53
2023-03-02T23:03:37.888Z,62.50
2023-03-02T23:06:20.480Z,52.63
2023-03-02T23:08:50.289Z,56.85
2023-03-02T23:11:20.523Z,61.70
2023-03-02T23:13:49.427Z,55.65
2023-03-02T23:16:20.445Z,56.15
2023-03-02T23:18:49.529Z,67.22
2023-03-02T23:21:19.954Z,64.03
2023-03-02T23:23:50.176Z,53.83
2023-03-02T23:26:19.227Z,53.47
2023-03-02T23:28:48.393Z,49.75
2023-03-02T23:31:18.359Z,51.42
2023-03-02T23:33:46.862Z,52.58
2023-03-02T23:36:15.335Z,53.03
2023-03-02T23:38:43.208Z,54.30
2023-03-02T23:41:12.443Z,55.72
2023-03-02T23:43:40.171Z,56.17
2023-03-02T23:46:07.955Z,54.72
2023-03-02T23:48:35.836Z,54.75
2023-03-02T23:51:03.608Z,57.00
2023-03-02T23:53:31.273Z,55.85
2023-03-02T23:55:59.048Z,53.33
2023-03-02T23:58:28.260Z,59.25
